Historyczne dane pomiarowe

Dodano dane terminowe – wersja testowa.

Dane z okresu 1951-2019

Wersja bazy: 1.34 [2019-03-16, lista zmian], aktualizacja planowana na 2019-04-15

Dane meteo z obszaru Polski uzyskane na podstawie danych udostępnionych przez Instytut Meteorologii i Gospodarki Wodnej – Państwowy Instytut Badawczy.

 

Wybierz Datę:    

       

TemperaturaWilgotnośćWiatrCiśnienieOpadyŚniegCzas trwania zjawisk
 Stacja t tx tn tng RH VA  wxwx mslp ppp RRR   cm mm wxwxwxwxwxwxwx
1975-07-16 21.4 26.0 16.5- 64.3- 4.3 3.3---- 0.0------------
1975-07-17 18.1 23.8 10.5- 70.3- 3.3 2.0---- 0.0------------
1975-07-18 17.1 24.4 7.9- 78.8- 6.0 1.7---- 1.3------------
1975-07-19 17.3 24.6 11.2- 85.8- 7.7 2.3---- 4.5------------
1975-07-20 15.9 17.9 14.3- 93.0- 8.0 3.3---- 1.7------------
1975-07-21 16.8 20.1 14.3- 90.8- 6.0 1.3---- 0.7------------
1975-07-22 18.4 23.9 12.2- 79.8- 4.3 2.0---- 0.0------------
1975-07-23 18.0 28.0 10.6- 81.0- 2.7 1.0---- 0.0------------
1975-07-24 19.2 28.3 12.1- 81.3- 2.7 4.3---- 14.0------------
1975-07-25 14.0 18.7 11.8- 97.5- 7.7 3.3---- 29.5------------
1975-07-26 12.3 17.3 10.5- 92.8- 7.7 2.7---- 1.9------------
1975-07-27 12.5 15.1 10.1- 86.5- 6.7 7.7---- 8.1------------
1975-07-28 15.6 19.6 10.6- 88.0- 6.3 4.7---- 0.0------------
1975-07-29 19.3 25.2 14.4- 73.0- 2.3 3.3---- 0.0------------
1975-07-30 16.7 19.9 10.7- 84.0- 4.0 2.7---- 0.3------------
1975-07-31 17.3 24.3 10.9- 81.5- 6.7 1.3---- 0.0------------
1975-08-01 18.0 24.7 12.2- 79.8- 4.7 2.7---- 2.2------------
1975-08-02 16.3 20.6 11.5- 77.5- 6.7 2.7---- 0.0------------
1975-08-03 15.6 17.7 11.3- 87.5- 7.0 2.3---- 0.8------------
1975-08-04 17.1 22.6 13.3- 81.5- 2.3 2.3---- 3.3------------
1975-08-05 17.9 25.3 12.7- 83.3- 5.0 2.0---- 1.1------------
1975-08-06 19.0 26.4 12.0- 78.5- 6.0 2.0---- 0.0------------
1975-08-07 21.0 26.6 13.5- 70.8- 2.0 3.0---- 0.0------------
1975-08-08 21.3 28.6 13.6- 68.3- 1.3 2.7---- 0.0------------
1975-08-09 20.5 27.6 11.8- 78.5- 2.3 1.0---- 1.3------------
1975-08-10 21.1 29.1 11.6- 72.8- 1.0 0.7---- 0.0------------
1975-08-11 19.3 27.1 11.2- 75.3- 1.7 1.0---- 0.0------------
1975-08-12 18.0 28.6 8.7- 71.8- 2.7 2.0---- 0.0------------
1975-08-13 13.0 18.1 10.7- 69.0- 4.7 2.0---- 0.0------------
1975-08-14 12.0 20.4 1.0- 69.3- 0.0 0.7---- 0.0------------
159.2 ms

 

Źródłem pochodzenia danych jest Instytut Meteorologii i Gospodarki Wodnej – Państwowy Instytut Badawczy. Dane Instytutu Meteorologii i Gospodarki Wodnej – Państwowego Instytutu Badawczego zostały przetworzone.

Dane źródłowe można odnaleźć na stronie https://dane.imgw.pl